Buchans, Canada
Current Conditions -  °F | °C
As of 9:00 AM on Friday 24 Oct 2014 (Local Time) from CYDF Reporting Station
Broken Clouds Broken Clouds  
Wind Chill: 28°   Ceiling: 22000
Heat Index: 28°   Visibility: 15mi
Dew Point: 28°   Wind: 0mph
Humidity: 100%   Direction: NA
Pressure: 30.03"   Gusts: NA
Location:  48.82°N, 56.87°W
Report Text: CYDF 241100Z 00000KT 15SM FEW002 BKN220 M02/M02 A3003 RMK SF1CI4 SLP170
Loading
Personal Weather Stations






























Interactive Weather Map
Tropical Storm Tracking
New forecast layout! Learn more

10-Day Weather Forecast

Advertisements
Track Severe Weather on mobile